aviador You're here:

BKPR Decoded Metar

PRISHTINA in SERBIA
Report Time2017-04-29 17:30:00
UTC Time2017-04-29 17:45:01
Flight Rules vfr VFR
Wind360° at 19 kt
W.Decomp.*RWY 35: 18.8 kt HW 2.6 kt RCW
Visibility9999 m
Phenomena:N/A
Clouds:Scattered 050 Hf
Broken 080 Hf
Expected CloudBase > 1,600 ft AGL from Temp-Dew spread
Ceiling8,000 ft
Temp10°C (ISA -1)
Dew Point06°C (76% RH)
AAT2.2°C
QNH1013 hPa
Density Alt1,877 ft
Elevation1,890 ft
Report Wrong Elevation
Raw Report
BKPR 291730Z 36019KT 9999 SCT050 BKN080 10/06 Q1013 NOSIG=

Extra information for BKPR:More info

Metar Taf Metar & Taf Last 4 Metars F.Rules Stats Wind Profile Meteogram Temp Stats Airport Information Weather charts Add Link Nearby VenuesMetar ALERT Operation Metar Decoded Social comments